sensor_id;sensor_type;location;lat;lon;timestamp;P1;durP1;ratioP1;P2;durP2;ratioP2
67500;SDS011;54349;52.528;19.760;2023-07-13T00:01:15;4.60;;;2.70;;
67500;SDS011;54349;52.528;19.760;2023-07-13T00:03:45;5.60;;;2.80;;
67500;SDS011;54349;52.528;19.760;2023-07-13T00:06:13;5.20;;;2.80;;
67500;SDS011;54349;52.528;19.760;2023-07-13T00:08:42;5.60;;;3.00;;
67500;SDS011;54349;52.528;19.760;2023-07-13T00:11:11;4.60;;;2.80;;
67500;SDS011;54349;52.528;19.760;2023-07-13T00:13:40;4.40;;;2.60;;
67500;SDS011;54349;52.528;19.760;2023-07-13T00:16:11;4.20;;;2.60;;
67500;SDS011;54349;52.528;19.760;2023-07-13T00:18:42;4.50;;;2.60;;
67500;SDS011;54349;52.528;19.760;2023-07-13T00:21:11;4.20;;;2.80;;
67500;SDS011;54349;52.528;19.760;2023-07-13T00:23:41;3.70;;;2.50;;
67500;SDS011;54349;52.528;19.760;2023-07-13T00:26:11;5.00;;;2.90;;
67500;SDS011;54349;52.528;19.760;2023-07-13T00:28:40;5.00;;;2.90;;
67500;SDS011;54349;52.528;19.760;2023-07-13T00:31:10;4.80;;;2.70;;
67500;SDS011;54349;52.528;19.760;2023-07-13T00:33:41;4.70;;;3.00;;
67500;SDS011;54349;52.528;19.760;2023-07-13T00:36:10;4.80;;;2.60;;
67500;SDS011;54349;52.528;19.760;2023-07-13T00:38:39;4.30;;;2.70;;
67500;SDS011;54349;52.528;19.760;2023-07-13T00:41:09;4.90;;;2.80;;
67500;SDS011;54349;52.528;19.760;2023-07-13T00:43:40;3.70;;;2.60;;
67500;SDS011;54349;52.528;19.760;2023-07-13T00:46:23;5.20;;;3.00;;
67500;SDS011;54349;52.528;19.760;2023-07-13T00:48:57;4.90;;;2.70;;
67500;SDS011;54349;52.528;19.760;2023-07-13T00:51:36;5.20;;;3.00;;
67500;SDS011;54349;52.528;19.760;2023-07-13T00:54:38;5.00;;;3.20;;
67500;SDS011;54349;52.528;19.760;2023-07-13T00:57:18;4.50;;;2.90;;
67500;SDS011;54349;52.528;19.760;2023-07-13T00:59:52;5.40;;;3.00;;
67500;SDS011;54349;52.528;19.760;2023-07-13T01:02:28;4.50;;;2.90;;
67500;SDS011;54349;52.528;19.760;2023-07-13T01:04:56;6.00;;;3.00;;
67500;SDS011;54349;52.528;19.760;2023-07-13T01:07:25;5.30;;;3.10;;
67500;SDS011;54349;52.528;19.760;2023-07-13T01:09:53;5.80;;;3.20;;
67500;SDS011;54349;52.528;19.760;2023-07-13T01:12:21;5.10;;;3.10;;
67500;SDS011;54349;52.528;19.760;2023-07-13T01:14:57;4.90;;;3.00;;
67500;SDS011;54349;52.528;19.760;2023-07-13T01:17:28;5.30;;;3.10;;
67500;SDS011;54349;52.528;19.760;2023-07-13T01:19:58;4.50;;;2.60;;
67500;SDS011;54349;52.528;19.760;2023-07-13T01:22:27;4.80;;;3.10;;
67500;SDS011;54349;52.528;19.760;2023-07-13T01:24:58;5.40;;;3.20;;
67500;SDS011;54349;52.528;19.760;2023-07-13T01:27:26;5.50;;;3.40;;
67500;SDS011;54349;52.528;19.760;2023-07-13T01:29:55;4.40;;;2.60;;
67500;SDS011;54349;52.528;19.760;2023-07-13T01:32:30;4.80;;;2.80;;
67500;SDS011;54349;52.528;19.760;2023-07-13T01:35:01;4.80;;;2.80;;
67500;SDS011;54349;52.528;19.760;2023-07-13T01:37:29;4.50;;;2.80;;
67500;SDS011;54349;52.528;19.760;2023-07-13T01:40:03;5.50;;;3.10;;
67500;SDS011;54349;52.528;19.760;2023-07-13T01:42:32;5.80;;;3.30;;
67500;SDS011;54349;52.528;19.760;2023-07-13T01:45:10;4.30;;;2.60;;
67500;SDS011;54349;52.528;19.760;2023-07-13T01:47:38;4.10;;;2.60;;
67500;SDS011;54349;52.528;19.760;2023-07-13T01:50:08;4.90;;;2.80;;
67500;SDS011;54349;52.528;19.760;2023-07-13T01:52:43;5.40;;;3.40;;
67500;SDS011;54349;52.528;19.760;2023-07-13T01:55:12;5.80;;;3.40;;
67500;SDS011;54349;52.528;19.760;2023-07-13T01:57:41;5.20;;;3.20;;
67500;SDS011;54349;52.528;19.760;2023-07-13T02:00:12;6.00;;;3.90;;
67500;SDS011;54349;52.528;19.760;2023-07-13T02:02:47;5.10;;;3.40;;
67500;SDS011;54349;52.528;19.760;2023-07-13T02:05:18;5.70;;;3.70;;
67500;SDS011;54349;52.528;19.760;2023-07-13T02:07:47;4.70;;;2.80;;
67500;SDS011;54349;52.528;19.760;2023-07-13T02:10:16;4.60;;;2.90;;
67500;SDS011;54349;52.528;19.760;2023-07-13T02:12:45;5.40;;;3.00;;
67500;SDS011;54349;52.528;19.760;2023-07-13T02:15:13;5.00;;;3.10;;
67500;SDS011;54349;52.528;19.760;2023-07-13T02:17:42;4.90;;;3.10;;
67500;SDS011;54349;52.528;19.760;2023-07-13T02:20:11;4.50;;;2.90;;
67500;SDS011;54349;52.528;19.760;2023-07-13T02:22:40;5.50;;;3.40;;
67500;SDS011;54349;52.528;19.760;2023-07-13T02:25:08;4.60;;;2.80;;
67500;SDS011;54349;52.528;19.760;2023-07-13T02:27:37;5.10;;;3.00;;
67500;SDS011;54349;52.528;19.760;2023-07-13T02:30:06;5.10;;;2.90;;
67500;SDS011;54349;52.528;19.760;2023-07-13T02:32:35;5.50;;;3.20;;
67500;SDS011;54349;52.528;19.760;2023-07-13T02:35:05;4.50;;;2.80;;
67500;SDS011;54349;52.528;19.760;2023-07-13T02:37:34;5.90;;;3.40;;
67500;SDS011;54349;52.528;19.760;2023-07-13T02:40:03;5.70;;;3.40;;
67500;SDS011;54349;52.528;19.760;2023-07-13T02:42:36;6.20;;;3.80;;
67500;SDS011;54349;52.528;19.760;2023-07-13T02:45:08;5.60;;;3.50;;
67500;SDS011;54349;52.528;19.760;2023-07-13T02:47:39;5.10;;;3.40;;
67500;SDS011;54349;52.528;19.760;2023-07-13T02:50:09;5.10;;;3.30;;
67500;SDS011;54349;52.528;19.760;2023-07-13T02:52:38;6.10;;;3.20;;
67500;SDS011;54349;52.528;19.760;2023-07-13T02:55:07;4.50;;;3.00;;
67500;SDS011;54349;52.528;19.760;2023-07-13T02:57:37;4.90;;;2.80;;
67500;SDS011;54349;52.528;19.760;2023-07-13T03:00:07;4.70;;;2.90;;
67500;SDS011;54349;52.528;19.760;2023-07-13T03:02:37;5.60;;;3.30;;
67500;SDS011;54349;52.528;19.760;2023-07-13T03:05:07;5.30;;;3.10;;
67500;SDS011;54349;52.528;19.760;2023-07-13T03:07:39;4.80;;;3.00;;
67500;SDS011;54349;52.528;19.760;2023-07-13T03:10:09;4.90;;;2.80;;
67500;SDS011;54349;52.528;19.760;2023-07-13T03:12:44;5.40;;;3.40;;
67500;SDS011;54349;52.528;19.760;2023-07-13T03:15:20;5.60;;;3.30;;
67500;SDS011;54349;52.528;19.760;2023-07-13T03:17:49;5.80;;;3.60;;
67500;SDS011;54349;52.528;19.760;2023-07-13T03:20:18;5.60;;;3.30;;
67500;SDS011;54349;52.528;19.760;2023-07-13T03:22:46;5.10;;;3.50;;
67500;SDS011;54349;52.528;19.760;2023-07-13T03:25:16;4.90;;;3.10;;
67500;SDS011;54349;52.528;19.760;2023-07-13T03:27:44;4.30;;;2.70;;
67500;SDS011;54349;52.528;19.760;2023-07-13T03:30:13;4.70;;;3.00;;
67500;SDS011;54349;52.528;19.760;2023-07-13T03:32:42;4.80;;;3.00;;
67500;SDS011;54349;52.528;19.760;2023-07-13T03:35:12;4.60;;;2.90;;
67500;SDS011;54349;52.528;19.760;2023-07-13T03:37:40;5.00;;;2.90;;
67500;SDS011;54349;52.528;19.760;2023-07-13T03:40:14;4.50;;;2.80;;
67500;SDS011;54349;52.528;19.760;2023-07-13T03:42:44;4.70;;;2.90;;
67500;SDS011;54349;52.528;19.760;2023-07-13T03:45:15;5.50;;;3.70;;
67500;SDS011;54349;52.528;19.760;2023-07-13T03:47:44;5.30;;;3.40;;
67500;SDS011;54349;52.528;19.760;2023-07-13T03:50:13;5.40;;;3.50;;
67500;SDS011;54349;52.528;19.760;2023-07-13T03:52:41;5.60;;;3.40;;
67500;SDS011;54349;52.528;19.760;2023-07-13T03:55:11;5.70;;;3.50;;
67500;SDS011;54349;52.528;19.760;2023-07-13T03:57:43;4.40;;;3.00;;
67500;SDS011;54349;52.528;19.760;2023-07-13T04:00:12;4.90;;;2.90;;
67500;SDS011;54349;52.528;19.760;2023-07-13T04:02:43;4.90;;;2.90;;
67500;SDS011;54349;52.528;19.760;2023-07-13T04:05:12;4.50;;;2.80;;
67500;SDS011;54349;52.528;19.760;2023-07-13T04:07:40;4.20;;;2.80;;
67500;SDS011;54349;52.528;19.760;2023-07-13T04:10:09;4.40;;;2.70;;
67500;SDS011;54349;52.528;19.760;2023-07-13T04:12:38;4.50;;;2.70;;
67500;SDS011;54349;52.528;19.760;2023-07-13T04:15:07;4.90;;;2.80;;
67500;SDS011;54349;52.528;19.760;2023-07-13T04:17:36;5.40;;;3.30;;
67500;SDS011;54349;52.528;19.760;2023-07-13T04:20:05;5.20;;;3.40;;
67500;SDS011;54349;52.528;19.760;2023-07-13T04:22:34;5.40;;;3.40;;
67500;SDS011;54349;52.528;19.760;2023-07-13T04:25:03;5.00;;;3.40;;
67500;SDS011;54349;52.528;19.760;2023-07-13T04:27:33;5.20;;;3.40;;
67500;SDS011;54349;52.528;19.760;2023-07-13T04:30:01;6.20;;;3.00;;
67500;SDS011;54349;52.528;19.760;2023-07-13T04:32:30;4.30;;;2.80;;
67500;SDS011;54349;52.528;19.760;2023-07-13T04:34:58;4.90;;;2.90;;
67500;SDS011;54349;52.528;19.760;2023-07-13T04:37:27;5.00;;;3.00;;
67500;SDS011;54349;52.528;19.760;2023-07-13T04:39:57;4.60;;;3.00;;
67500;SDS011;54349;52.528;19.760;2023-07-13T04:42:27;5.10;;;2.90;;
67500;SDS011;54349;52.528;19.760;2023-07-13T04:44:55;5.90;;;3.30;;
67500;SDS011;54349;52.528;19.760;2023-07-13T04:47:23;6.40;;;3.60;;
67500;SDS011;54349;52.528;19.760;2023-07-13T04:49:52;5.60;;;3.50;;
67500;SDS011;54349;52.528;19.760;2023-07-13T04:52:20;5.60;;;3.50;;
67500;SDS011;54349;52.528;19.760;2023-07-13T04:54:49;6.40;;;3.50;;
67500;SDS011;54349;52.528;19.760;2023-07-13T04:57:17;5.90;;;3.40;;
67500;SDS011;54349;52.528;19.760;2023-07-13T04:59:46;4.90;;;2.50;;
67500;SDS011;54349;52.528;19.760;2023-07-13T05:02:14;5.40;;;3.00;;
67500;SDS011;54349;52.528;19.760;2023-07-13T05:04:46;4.90;;;3.00;;
67500;SDS011;54349;52.528;19.760;2023-07-13T05:07:15;5.50;;;3.20;;
67500;SDS011;54349;52.528;19.760;2023-07-13T05:09:44;5.10;;;2.90;;
67500;SDS011;54349;52.528;19.760;2023-07-13T05:12:12;5.80;;;2.90;;
67500;SDS011;54349;52.528;19.760;2023-07-13T05:14:40;5.80;;;3.10;;
67500;SDS011;54349;52.528;19.760;2023-07-13T05:17:09;5.10;;;3.00;;
67500;SDS011;54349;52.528;19.760;2023-07-13T05:19:42;6.10;;;3.40;;
67500;SDS011;54349;52.528;19.760;2023-07-13T05:22:10;6.20;;;3.50;;
67500;SDS011;54349;52.528;19.760;2023-07-13T05:24:39;4.90;;;3.10;;
67500;SDS011;54349;52.528;19.760;2023-07-13T05:27:09;6.00;;;3.70;;
67500;SDS011;54349;52.528;19.760;2023-07-13T05:29:37;6.40;;;3.50;;
67500;SDS011;54349;52.528;19.760;2023-07-13T05:32:06;5.40;;;3.60;;
67500;SDS011;54349;52.528;19.760;2023-07-13T05:34:35;5.00;;;2.90;;
67500;SDS011;54349;52.528;19.760;2023-07-13T05:37:04;4.80;;;2.80;;
67500;SDS011;54349;52.528;19.760;2023-07-13T05:39:35;5.90;;;3.00;;
67500;SDS011;54349;52.528;19.760;2023-07-13T05:42:04;5.30;;;3.20;;
67500;SDS011;54349;52.528;19.760;2023-07-13T05:44:33;4.80;;;2.80;;
67500;SDS011;54349;52.528;19.760;2023-07-13T05:47:02;4.50;;;2.80;;
67500;SDS011;54349;52.528;19.760;2023-07-13T05:49:31;5.00;;;2.80;;
67500;SDS011;54349;52.528;19.760;2023-07-13T05:52:00;6.30;;;3.00;;
67500;SDS011;54349;52.528;19.760;2023-07-13T05:54:28;4.90;;;3.00;;
67500;SDS011;54349;52.528;19.760;2023-07-13T05:56:58;6.30;;;3.30;;
67500;SDS011;54349;52.528;19.760;2023-07-13T05:59:27;5.60;;;3.70;;
67500;SDS011;54349;52.528;19.760;2023-07-13T06:01:55;5.80;;;3.60;;
67500;SDS011;54349;52.528;19.760;2023-07-13T06:04:24;5.70;;;3.60;;
67500;SDS011;54349;52.528;19.760;2023-07-13T06:06:52;5.10;;;3.60;;
67500;SDS011;54349;52.528;19.760;2023-07-13T06:09:21;7.90;;;4.10;;
67500;SDS011;54349;52.528;19.760;2023-07-13T06:11:50;7.80;;;4.50;;
67500;SDS011;54349;52.528;19.760;2023-07-13T06:14:18;7.70;;;4.60;;
67500;SDS011;54349;52.528;19.760;2023-07-13T06:16:46;8.40;;;5.00;;
67500;SDS011;54349;52.528;19.760;2023-07-13T06:19:14;9.30;;;6.10;;
67500;SDS011;54349;52.528;19.760;2023-07-13T06:21:43;7.50;;;5.00;;
67500;SDS011;54349;52.528;19.760;2023-07-13T06:24:11;7.90;;;4.90;;
67500;SDS011;54349;52.528;19.760;2023-07-13T06:26:40;8.20;;;4.60;;
67500;SDS011;54349;52.528;19.760;2023-07-13T06:29:08;8.20;;;4.60;;
67500;SDS011;54349;52.528;19.760;2023-07-13T06:31:37;8.50;;;4.70;;
67500;SDS011;54349;52.528;19.760;2023-07-13T06:34:06;7.20;;;4.80;;
67500;SDS011;54349;52.528;19.760;2023-07-13T06:36:34;8.60;;;4.80;;
67500;SDS011;54349;52.528;19.760;2023-07-13T06:39:06;7.20;;;4.70;;
67500;SDS011;54349;52.528;19.760;2023-07-13T06:41:35;7.60;;;4.90;;
67500;SDS011;54349;52.528;19.760;2023-07-13T06:44:04;8.20;;;4.70;;
67500;SDS011;54349;52.528;19.760;2023-07-13T06:46:33;8.40;;;4.90;;
67500;SDS011;54349;52.528;19.760;2023-07-13T06:49:01;8.00;;;5.30;;
67500;SDS011;54349;52.528;19.760;2023-07-13T06:51:30;8.00;;;5.00;;
67500;SDS011;54349;52.528;19.760;2023-07-13T06:53:58;7.30;;;4.60;;
67500;SDS011;54349;52.528;19.760;2023-07-13T06:56:26;7.40;;;4.50;;
67500;SDS011;54349;52.528;19.760;2023-07-13T06:58:55;9.40;;;5.00;;
67500;SDS011;54349;52.528;19.760;2023-07-13T07:01:23;7.40;;;4.90;;
67500;SDS011;54349;52.528;19.760;2023-07-13T07:03:52;7.50;;;5.20;;
67500;SDS011;54349;52.528;19.760;2023-07-13T07:06:22;9.10;;;5.00;;
67500;SDS011;54349;52.528;19.760;2023-07-13T07:08:52;6.80;;;4.60;;
67500;SDS011;54349;52.528;19.760;2023-07-13T07:11:24;7.80;;;5.20;;
67500;SDS011;54349;52.528;19.760;2023-07-13T07:13:54;7.90;;;4.80;;
67500;SDS011;54349;52.528;19.760;2023-07-13T07:16:24;8.30;;;5.30;;
67500;SDS011;54349;52.528;19.760;2023-07-13T07:18:54;6.90;;;4.50;;
67500;SDS011;54349;52.528;19.760;2023-07-13T07:21:23;7.70;;;5.00;;
67500;SDS011;54349;52.528;19.760;2023-07-13T07:23:52;7.00;;;4.90;;
67500;SDS011;54349;52.528;19.760;2023-07-13T07:26:21;8.20;;;5.30;;
67500;SDS011;54349;52.528;19.760;2023-07-13T07:28:54;10.50;;;5.90;;
67500;SDS011;54349;52.528;19.760;2023-07-13T07:31:27;9.70;;;5.50;;
67500;SDS011;54349;52.528;19.760;2023-07-13T07:33:59;8.70;;;6.00;;
67500;SDS011;54349;52.528;19.760;2023-07-13T07:36:28;9.20;;;6.00;;
67500;SDS011;54349;52.528;19.760;2023-07-13T07:39:00;10.60;;;6.70;;
67500;SDS011;54349;52.528;19.760;2023-07-13T07:41:30;10.70;;;7.30;;
67500;SDS011;54349;52.528;19.760;2023-07-13T07:44:02;8.70;;;6.20;;
67500;SDS011;54349;52.528;19.760;2023-07-13T07:46:36;10.20;;;6.50;;
67500;SDS011;54349;52.528;19.760;2023-07-13T07:49:06;9.50;;;7.00;;
67500;SDS011;54349;52.528;19.760;2023-07-13T07:51:35;9.90;;;6.20;;
67500;SDS011;54349;52.528;19.760;2023-07-13T07:54:04;10.40;;;6.20;;
67500;SDS011;54349;52.528;19.760;2023-07-13T07:56:34;9.40;;;6.40;;
67500;SDS011;54349;52.528;19.760;2023-07-13T07:59:06;11.30;;;6.20;;
67500;SDS011;54349;52.528;19.760;2023-07-13T08:01:38;9.50;;;6.00;;
67500;SDS011;54349;52.528;19.760;2023-07-13T08:04:11;9.90;;;6.00;;
67500;SDS011;54349;52.528;19.760;2023-07-13T08:07:01;9.20;;;6.30;;
67500;SDS011;54349;52.528;19.760;2023-07-13T08:09:31;9.20;;;5.80;;
67500;SDS011;54349;52.528;19.760;2023-07-13T08:12:01;7.80;;;5.40;;
67500;SDS011;54349;52.528;19.760;2023-07-13T08:14:33;8.50;;;5.80;;
67500;SDS011;54349;52.528;19.760;2023-07-13T08:17:20;9.30;;;5.60;;
67500;SDS011;54349;52.528;19.760;2023-07-13T08:19:50;7.10;;;5.10;;
67500;SDS011;54349;52.528;19.760;2023-07-13T08:22:20;7.70;;;5.30;;
67500;SDS011;54349;52.528;19.760;2023-07-13T08:24:50;7.40;;;5.00;;
67500;SDS011;54349;52.528;19.760;2023-07-13T08:27:25;8.00;;;4.90;;
67500;SDS011;54349;52.528;19.760;2023-07-13T08:29:57;7.10;;;4.90;;
67500;SDS011;54349;52.528;19.760;2023-07-13T08:32:26;7.40;;;4.50;;
67500;SDS011;54349;52.528;19.760;2023-07-13T08:34:56;7.80;;;5.20;;
67500;SDS011;54349;52.528;19.760;2023-07-13T08:37:26;7.30;;;4.70;;
67500;SDS011;54349;52.528;19.760;2023-07-13T08:39:55;8.60;;;5.00;;
67500;SDS011;54349;52.528;19.760;2023-07-13T08:42:42;7.40;;;4.50;;
67500;SDS011;54349;52.528;19.760;2023-07-13T08:48:44;7.20;;;4.30;;
67500;SDS011;54349;52.528;19.760;2023-07-13T08:54:01;6.70;;;4.40;;
67500;SDS011;54349;52.528;19.760;2023-07-13T08:56:33;7.40;;;4.50;;
67500;SDS011;54349;52.528;19.760;2023-07-13T08:59:15;6.60;;;4.30;;
67500;SDS011;54349;52.528;19.760;2023-07-13T09:05:00;7.00;;;4.40;;
67500;SDS011;54349;52.528;19.760;2023-07-13T09:08:07;6.80;;;4.40;;
67500;SDS011;54349;52.528;19.760;2023-07-13T09:10:48;6.60;;;4.30;;
67500;SDS011;54349;52.528;19.760;2023-07-13T09:16:31;6.50;;;4.30;;
67500;SDS011;54349;52.528;19.760;2023-07-13T09:19:05;6.50;;;4.20;;
67500;SDS011;54349;52.528;19.760;2023-07-13T09:21:42;6.50;;;4.10;;
67500;SDS011;54349;52.528;19.760;2023-07-13T09:24:35;6.60;;;4.30;;
67500;SDS011;54349;52.528;19.760;2023-07-13T09:27:30;6.40;;;4.50;;
67500;SDS011;54349;52.528;19.760;2023-07-13T09:32:50;6.50;;;4.50;;
67500;SDS011;54349;52.528;19.760;2023-07-13T09:35:28;6.90;;;4.50;;
67500;SDS011;54349;52.528;19.760;2023-07-13T09:38:03;7.20;;;4.60;;
67500;SDS011;54349;52.528;19.760;2023-07-13T09:41:08;8.90;;;4.60;;
67500;SDS011;54349;52.528;19.760;2023-07-13T09:46:45;6.30;;;3.90;;
67500;SDS011;54349;52.528;19.760;2023-07-13T09:52:01;6.60;;;4.10;;
67500;SDS011;54349;52.528;19.760;2023-07-13T09:54:34;6.60;;;4.10;;
67500;SDS011;54349;52.528;19.760;2023-07-13T09:57:16;6.80;;;4.40;;
67500;SDS011;54349;52.528;19.760;2023-07-13T09:59:48;6.20;;;4.10;;
67500;SDS011;54349;52.528;19.760;2023-07-13T10:02:22;7.30;;;4.20;;
67500;SDS011;54349;52.528;19.760;2023-07-13T10:05:03;6.50;;;4.40;;
67500;SDS011;54349;52.528;19.760;2023-07-13T10:07:44;8.50;;;4.60;;
67500;SDS011;54349;52.528;19.760;2023-07-13T10:10:18;6.10;;;4.00;;
67500;SDS011;54349;52.528;19.760;2023-07-13T10:12:50;6.30;;;4.10;;
67500;SDS011;54349;52.528;19.760;2023-07-13T10:15:22;5.50;;;3.60;;
67500;SDS011;54349;52.528;19.760;2023-07-13T10:17:55;6.50;;;3.70;;
67500;SDS011;54349;52.528;19.760;2023-07-13T10:20:26;5.90;;;3.70;;
67500;SDS011;54349;52.528;19.760;2023-07-13T10:23:11;5.60;;;3.60;;
67500;SDS011;54349;52.528;19.760;2023-07-13T10:25:49;5.70;;;3.70;;
67500;SDS011;54349;52.528;19.760;2023-07-13T10:28:31;6.10;;;3.70;;
67500;SDS011;54349;52.528;19.760;2023-07-13T10:31:09;5.40;;;3.60;;
67500;SDS011;54349;52.528;19.760;2023-07-13T10:33:42;6.80;;;3.60;;
67500;SDS011;54349;52.528;19.760;2023-07-13T10:36:19;5.80;;;3.40;;
67500;SDS011;54349;52.528;19.760;2023-07-13T10:38:50;6.00;;;3.40;;
67500;SDS011;54349;52.528;19.760;2023-07-13T10:41:24;5.70;;;3.80;;
67500;SDS011;54349;52.528;19.760;2023-07-13T10:43:57;5.50;;;3.60;;
67500;SDS011;54349;52.528;19.760;2023-07-13T10:46:27;5.40;;;3.50;;
67500;SDS011;54349;52.528;19.760;2023-07-13T10:49:02;6.00;;;3.50;;
67500;SDS011;54349;52.528;19.760;2023-07-13T10:51:34;5.50;;;3.60;;
67500;SDS011;54349;52.528;19.760;2023-07-13T11:00:13;4.90;;;3.20;;
67500;SDS011;54349;52.528;19.760;2023-07-13T11:02:56;5.00;;;3.10;;
67500;SDS011;54349;52.528;19.760;2023-07-13T11:11:00;5.20;;;3.20;;
67500;SDS011;54349;52.528;19.760;2023-07-13T11:14:02;5.00;;;3.00;;
67500;SDS011;54349;52.528;19.760;2023-07-13T11:16:38;5.20;;;3.10;;
67500;SDS011;54349;52.528;19.760;2023-07-13T11:25:43;4.80;;;2.90;;
67500;SDS011;54349;52.528;19.760;2023-07-13T11:33:47;5.20;;;3.00;;
67500;SDS011;54349;52.528;19.760;2023-07-13T11:36:23;5.20;;;2.90;;
67500;SDS011;54349;52.528;19.760;2023-07-13T11:39:10;4.70;;;2.90;;
67500;SDS011;54349;52.528;19.760;2023-07-13T11:41:51;4.80;;;3.20;;
67500;SDS011;54349;52.528;19.760;2023-07-13T11:44:25;4.50;;;2.80;;
67500;SDS011;54349;52.528;19.760;2023-07-13T11:46:58;4.50;;;2.90;;
67500;SDS011;54349;52.528;19.760;2023-07-13T11:49:42;5.20;;;3.00;;
67500;SDS011;54349;52.528;19.760;2023-07-13T11:52:18;5.00;;;3.00;;
67500;SDS011;54349;52.528;19.760;2023-07-13T11:54:52;4.80;;;2.90;;
67500;SDS011;54349;52.528;19.760;2023-07-13T11:57:28;5.20;;;2.70;;
67500;SDS011;54349;52.528;19.760;2023-07-13T12:00:04;5.90;;;3.10;;
67500;SDS011;54349;52.528;19.760;2023-07-13T12:02:52;4.50;;;2.60;;
67500;SDS011;54349;52.528;19.760;2023-07-13T12:05:23;4.20;;;2.60;;
67500;SDS011;54349;52.528;19.760;2023-07-13T12:07:53;4.20;;;2.70;;
67500;SDS011;54349;52.528;19.760;2023-07-13T12:10:28;4.80;;;2.80;;
67500;SDS011;54349;52.528;19.760;2023-07-13T12:13:02;4.90;;;2.90;;
67500;SDS011;54349;52.528;19.760;2023-07-13T12:15:43;4.50;;;2.80;;
67500;SDS011;54349;52.528;19.760;2023-07-13T12:18:18;4.30;;;2.90;;
67500;SDS011;54349;52.528;19.760;2023-07-13T12:20:50;4.30;;;2.80;;
67500;SDS011;54349;52.528;19.760;2023-07-13T12:23:23;4.10;;;2.50;;
67500;SDS011;54349;52.528;19.760;2023-07-13T12:26:01;4.80;;;2.90;;
67500;SDS011;54349;52.528;19.760;2023-07-13T12:28:35;3.80;;;2.40;;
67500;SDS011;54349;52.528;19.760;2023-07-13T12:31:25;3.40;;;2.20;;
67500;SDS011;54349;52.528;19.760;2023-07-13T12:34:24;3.60;;;2.40;;
67500;SDS011;54349;52.528;19.760;2023-07-13T12:36:59;3.50;;;2.10;;
67500;SDS011;54349;52.528;19.760;2023-07-13T12:39:46;4.40;;;2.40;;
67500;SDS011;54349;52.528;19.760;2023-07-13T12:42:26;3.60;;;2.10;;
67500;SDS011;54349;52.528;19.760;2023-07-13T12:45:05;3.90;;;2.30;;
67500;SDS011;54349;52.528;19.760;2023-07-13T12:47:48;3.40;;;2.20;;
67500;SDS011;54349;52.528;19.760;2023-07-13T12:50:23;3.50;;;2.20;;
67500;SDS011;54349;52.528;19.760;2023-07-13T12:53:02;3.70;;;2.20;;
67500;SDS011;54349;52.528;19.760;2023-07-13T12:55:50;2.70;;;1.80;;
67500;SDS011;54349;52.528;19.760;2023-07-13T12:58:32;3.50;;;2.10;;
67500;SDS011;54349;52.528;19.760;2023-07-13T13:01:14;3.60;;;2.10;;
67500;SDS011;54349;52.528;19.760;2023-07-13T13:03:53;3.40;;;2.00;;
67500;SDS011;54349;52.528;19.760;2023-07-13T13:06:27;3.00;;;2.00;;
67500;SDS011;54349;52.528;19.760;2023-07-13T13:08:59;3.50;;;1.90;;
67500;SDS011;54349;52.528;19.760;2023-07-13T13:11:31;2.90;;;2.00;;
67500;SDS011;54349;52.528;19.760;2023-07-13T13:14:01;3.20;;;2.10;;
67500;SDS011;54349;52.528;19.760;2023-07-13T13:16:31;227.40;;;56.00;;
67500;SDS011;54349;52.528;19.760;2023-07-13T13:19:23;385.00;;;100.70;;
67500;SDS011;54349;52.528;19.760;2023-07-13T13:21:55;383.20;;;103.30;;
67500;SDS011;54349;52.528;19.760;2023-07-13T13:24:27;370.50;;;105.10;;
67500;SDS011;54349;52.528;19.760;2023-07-13T13:26:57;360.00;;;98.50;;
67500;SDS011;54349;52.528;19.760;2023-07-13T13:29:25;343.20;;;96.70;;
67500;SDS011;54349;52.528;19.760;2023-07-13T13:31:55;310.00;;;88.40;;
67500;SDS011;54349;52.528;19.760;2023-07-13T13:34:25;305.30;;;84.60;;
67500;SDS011;54349;52.528;19.760;2023-07-13T13:36:54;285.70;;;80.30;;
67500;SDS011;54349;52.528;19.760;2023-07-13T13:39:36;273.70;;;77.90;;
67500;SDS011;54349;52.528;19.760;2023-07-13T13:42:09;271.10;;;78.10;;
67500;SDS011;54349;52.528;19.760;2023-07-13T13:44:38;265.80;;;75.10;;
67500;SDS011;54349;52.528;19.760;2023-07-13T13:50:12;222.10;;;65.00;;
67500;SDS011;54349;52.528;19.760;2023-07-13T13:52:43;215.60;;;59.20;;
67500;SDS011;54349;52.528;19.760;2023-07-13T13:55:13;207.70;;;60.10;;
67500;SDS011;54349;52.528;19.760;2023-07-13T13:57:50;193.80;;;56.10;;
67500;SDS011;54349;52.528;19.760;2023-07-13T14:00:20;192.10;;;53.30;;
67500;SDS011;54349;52.528;19.760;2023-07-13T14:02:48;188.50;;;56.00;;
67500;SDS011;54349;52.528;19.760;2023-07-13T14:05:24;177.20;;;51.50;;
67500;SDS011;54349;52.528;19.760;2023-07-13T14:07:54;172.10;;;49.50;;
67500;SDS011;54349;52.528;19.760;2023-07-13T14:10:24;164.10;;;48.50;;
67500;SDS011;54349;52.528;19.760;2023-07-13T14:12:54;151.00;;;45.00;;
67500;SDS011;54349;52.528;19.760;2023-07-13T14:15:29;142.90;;;41.70;;
67500;SDS011;54349;52.528;19.760;2023-07-13T14:18:00;135.70;;;41.20;;
67500;SDS011;54349;52.528;19.760;2023-07-13T14:20:29;140.10;;;41.50;;
67500;SDS011;54349;52.528;19.760;2023-07-13T14:22:59;122.00;;;37.80;;
67500;SDS011;54349;52.528;19.760;2023-07-13T14:25:29;121.00;;;37.00;;
67500;SDS011;54349;52.528;19.760;2023-07-13T14:27:58;113.90;;;34.40;;
67500;SDS011;54349;52.528;19.760;2023-07-13T14:30:48;109.80;;;33.60;;
67500;SDS011;54349;52.528;19.760;2023-07-13T14:33:18;98.20;;;32.50;;
67500;SDS011;54349;52.528;19.760;2023-07-13T14:35:49;101.90;;;33.60;;
67500;SDS011;54349;52.528;19.760;2023-07-13T14:38:20;101.10;;;32.40;;
67500;SDS011;54349;52.528;19.760;2023-07-13T14:40:49;82.40;;;28.80;;
67500;SDS011;54349;52.528;19.760;2023-07-13T14:43:18;85.00;;;28.90;;
67500;SDS011;54349;52.528;19.760;2023-07-13T14:45:49;92.30;;;29.10;;
67500;SDS011;54349;52.528;19.760;2023-07-13T14:48:21;88.40;;;28.40;;
67500;SDS011;54349;52.528;19.760;2023-07-13T14:50:54;78.10;;;27.10;;
67500;SDS011;54349;52.528;19.760;2023-07-13T14:53:26;79.00;;;25.60;;
67500;SDS011;54349;52.528;19.760;2023-07-13T14:55:58;74.70;;;25.40;;
67500;SDS011;54349;52.528;19.760;2023-07-13T14:58:27;67.40;;;24.60;;
67500;SDS011;54349;52.528;19.760;2023-07-13T15:01:00;64.60;;;24.80;;
67500;SDS011;54349;52.528;19.760;2023-07-13T15:03:29;63.60;;;23.30;;
67500;SDS011;54349;52.528;19.760;2023-07-13T15:05:58;64.40;;;22.70;;
67500;SDS011;54349;52.528;19.760;2023-07-13T15:08:26;61.30;;;21.70;;
67500;SDS011;54349;52.528;19.760;2023-07-13T15:10:55;56.00;;;21.40;;
67500;SDS011;54349;52.528;19.760;2023-07-13T15:13:28;54.20;;;20.40;;
67500;SDS011;54349;52.528;19.760;2023-07-13T15:15:57;56.80;;;19.20;;
67500;SDS011;54349;52.528;19.760;2023-07-13T15:18:26;53.70;;;19.60;;
67500;SDS011;54349;52.528;19.760;2023-07-13T15:20:55;46.90;;;18.20;;
67500;SDS011;54349;52.528;19.760;2023-07-13T15:23:26;50.60;;;16.90;;
67500;SDS011;54349;52.528;19.760;2023-07-13T15:25:55;45.30;;;17.00;;
67500;SDS011;54349;52.528;19.760;2023-07-13T15:28:23;46.10;;;16.60;;
67500;SDS011;54349;52.528;19.760;2023-07-13T15:30:52;47.00;;;17.00;;
67500;SDS011;54349;52.528;19.760;2023-07-13T15:33:27;43.60;;;15.60;;
67500;SDS011;54349;52.528;19.760;2023-07-13T15:35:56;40.50;;;16.30;;
67500;SDS011;54349;52.528;19.760;2023-07-13T15:38:30;41.20;;;15.00;;
67500;SDS011;54349;52.528;19.760;2023-07-13T15:40:59;41.20;;;15.60;;
67500;SDS011;54349;52.528;19.760;2023-07-13T15:43:32;38.70;;;15.30;;
67500;SDS011;54349;52.528;19.760;2023-07-13T15:46:02;39.00;;;14.00;;